createdAt,value
2022-11-20T00:01:35.947Z,97092.44
2022-11-20T00:04:04.439Z,97100.38
2022-11-20T00:06:32.932Z,97086.13
2022-11-20T00:09:03.413Z,97086.13
2022-11-20T00:11:33.119Z,97086.13
2022-11-20T00:14:02.935Z,97090.81
2022-11-20T00:16:33.534Z,97085.31
2022-11-20T00:19:02.037Z,97086.13
2022-11-20T00:21:31.361Z,97090.00
2022-11-20T00:24:00.252Z,97085.31
2022-11-20T00:26:31.036Z,97088.06
2022-11-20T00:29:01.368Z,97092.78
2022-11-20T00:31:30.971Z,97095.53
2022-11-20T00:33:59.477Z,97093.91
2022-11-20T00:36:30.481Z,97093.09
2022-11-20T00:39:00.345Z,97099.44
2022-11-20T00:41:31.508Z,97107.69
2022-11-20T00:44:00.200Z,97101.69
2022-11-20T00:46:30.057Z,97101.38
2022-11-20T00:48:58.647Z,97103.31
2022-11-20T00:51:28.920Z,97104.13
2022-11-20T00:53:58.554Z,97104.47
2022-11-20T00:56:27.299Z,97103.31
2022-11-20T00:58:57.322Z,97103.31
2022-11-20T01:01:30.010Z,97102.50
2022-11-20T01:04:00.896Z,97110.47
2022-11-20T01:06:31.632Z,97108.03
2022-11-20T01:09:02.155Z,97103.31
2022-11-20T01:11:32.805Z,97104.47
2022-11-20T01:14:04.538Z,97104.13
2022-11-20T01:16:36.034Z,97108.03
2022-11-20T01:19:06.754Z,97099.44
2022-11-20T01:21:36.791Z,97109.66
2022-11-20T01:24:07.954Z,97114.34
2022-11-20T01:26:39.433Z,97117.09
2022-11-20T01:29:13.126Z,97121.47
2022-11-20T01:31:41.709Z,97114.34
2022-11-20T01:34:13.247Z,97123.75
2022-11-20T01:36:42.992Z,97115.97
2022-11-20T01:39:14.514Z,97125.38
2022-11-20T01:42:03.493Z,97123.75
2022-11-20T01:44:57.051Z,97118.25
2022-11-20T01:47:31.786Z,97118.25
2022-11-20T01:50:05.011Z,97118.25
2022-11-20T01:52:38.458Z,97126.50
2022-11-20T01:55:11.213Z,97122.13
2022-11-20T01:57:42.080Z,97122.94
2022-11-20T02:00:15.159Z,97123.75
2022-11-20T02:02:53.494Z,97111.13
2022-11-20T02:05:27.269Z,97113.88
2022-11-20T02:07:58.355Z,97115.00
2022-11-20T02:10:27.950Z,97121.34
2022-11-20T02:13:14.045Z,97117.75
2022-11-20T02:15:44.577Z,97122.13
2022-11-20T02:18:15.799Z,97113.38
2022-11-20T02:20:46.427Z,97120.53
2022-11-20T02:23:23.874Z,97114.19
2022-11-20T02:25:55.499Z,97122.47
2022-11-20T02:28:24.383Z,97118.91
2022-11-20T02:30:52.847Z,97120.53
2022-11-20T02:33:21.240Z,97122.47
2022-11-20T02:35:49.715Z,97118.91
2022-11-20T02:38:18.160Z,97124.41
2022-11-20T02:40:49.316Z,97126.84
2022-11-20T02:43:21.206Z,97112.25
2022-11-20T02:45:49.700Z,97126.03
2022-11-20T02:48:18.139Z,97120.53
2022-11-20T02:50:46.588Z,97112.25
2022-11-20T02:53:14.987Z,97115.00
2022-11-20T02:55:43.477Z,97109.50
2022-11-20T02:58:12.097Z,97113.38
2022-11-20T03:00:41.952Z,97115.81
2022-11-20T03:03:10.446Z,97119.72
2022-11-20T03:05:38.825Z,97113.38
2022-11-20T03:08:07.244Z,97115.00
2022-11-20T03:10:35.719Z,97114.19
2022-11-20T03:13:04.196Z,97112.59
2022-11-20T03:15:32.709Z,97111.78
2022-11-20T03:18:02.599Z,97111.78
2022-11-20T03:20:31.107Z,97105.13
2022-11-20T03:22:59.643Z,97113.38
2022-11-20T03:25:28.080Z,97107.06
2022-11-20T03:27:56.923Z,97110.97
2022-11-20T03:30:30.412Z,97111.78
2022-11-20T03:32:59.138Z,97111.78
2022-11-20T03:35:28.900Z,97105.13
2022-11-20T03:37:57.368Z,97115.66
2022-11-20T03:40:25.840Z,97117.28
2022-11-20T03:42:54.282Z,97121.19
2022-11-20T03:45:22.724Z,97121.19
2022-11-20T03:47:51.257Z,97125.88
2022-11-20T03:50:19.641Z,97119.56
2022-11-20T03:52:49.388Z,97120.38
2022-11-20T03:55:17.870Z,97129.94
2022-11-20T03:57:46.315Z,97121.66
2022-11-20T04:00:15.994Z,97122.81
2022-11-20T04:02:44.430Z,97122.81
2022-11-20T04:05:12.907Z,97117.28
2022-11-20T04:07:41.402Z,97120.03
2022-11-20T04:10:11.418Z,97123.59
2022-11-20T04:12:39.835Z,97123.94
2022-11-20T04:15:08.993Z,97120.03
2022-11-20T04:17:37.629Z,97125.56
2022-11-20T04:20:07.192Z,97120.03
2022-11-20T04:22:35.648Z,97115.34
2022-11-20T04:25:04.399Z,97111.78
2022-11-20T04:27:34.276Z,97101.88
2022-11-20T04:30:02.690Z,97104.63
2022-11-20T04:32:31.121Z,97101.56
2022-11-20T04:34:59.510Z,97100.75
2022-11-20T04:37:27.977Z,97096.38
2022-11-20T04:39:56.513Z,97095.22
2022-11-20T04:42:30.649Z,97100.75
2022-11-20T04:45:00.490Z,97096.84
2022-11-20T04:47:28.931Z,97095.22
2022-11-20T04:49:57.408Z,97093.63
2022-11-20T04:52:25.978Z,97098.31
2022-11-20T04:54:54.779Z,97094.44
2022-11-20T04:57:23.176Z,97100.75
2022-11-20T04:59:51.647Z,97094.44
2022-11-20T05:02:22.131Z,97092.00
2022-11-20T05:04:50.527Z,97092.00
2022-11-20T05:07:19.072Z,97093.63
2022-11-20T05:09:47.537Z,97093.63
2022-11-20T05:12:15.969Z,97086.47
2022-11-20T05:14:44.399Z,97092.00
2022-11-20T05:17:13.740Z,97088.09
2022-11-20T05:19:43.581Z,97089.25
2022-11-20T05:22:12.043Z,97092.00
2022-11-20T05:24:40.509Z,97088.75
2022-11-20T05:27:08.971Z,97094.75
2022-11-20T05:29:37.456Z,97088.75
2022-11-20T05:32:08.154Z,97092.00
2022-11-20T05:34:36.570Z,97091.19
2022-11-20T05:37:06.358Z,97086.47
2022-11-20T05:39:34.789Z,97086.47
2022-11-20T05:42:20.918Z,97090.06
2022-11-20T05:44:49.348Z,97085.69
2022-11-20T05:47:17.791Z,97086.47
2022-11-20T05:49:46.191Z,97082.59
2022-11-20T05:52:16.109Z,97079.34
2022-11-20T05:54:44.489Z,97080.97
2022-11-20T05:57:12.973Z,97089.25
2022-11-20T05:59:41.399Z,97090.84
2022-11-20T06:02:10.150Z,97092.00
2022-11-20T06:04:38.670Z,97098.31
2022-11-20T06:07:07.856Z,97092.81
2022-11-20T06:09:37.716Z,97091.19
2022-11-20T06:12:07.813Z,97088.91
2022-11-20T06:14:36.404Z,97087.28
2022-11-20T06:17:04.872Z,97092.81
2022-11-20T06:19:33.300Z,97092.00
2022-11-20T06:22:01.763Z,97092.81
2022-11-20T06:24:30.196Z,97094.75
2022-11-20T06:27:00.003Z,97095.91
2022-11-20T06:29:33.644Z,97098.66
2022-11-20T06:32:02.434Z,97092.00
2022-11-20T06:34:31.016Z,97097.50
2022-11-20T06:36:59.448Z,97096.69
2022-11-20T06:39:27.953Z,97101.41
2022-11-20T06:41:58.961Z,97108.53
2022-11-20T06:44:28.941Z,97101.41
2022-11-20T06:46:57.434Z,97101.41
2022-11-20T06:49:26.304Z,97101.41
2022-11-20T06:51:54.754Z,97101.41
2022-11-20T06:54:23.161Z,97110.81
2022-11-20T06:56:51.520Z,97105.31
2022-11-20T06:59:20.388Z,97110.00
2022-11-20T07:01:50.410Z,97111.94
2022-11-20T07:04:18.801Z,97107.25
2022-11-20T07:06:47.237Z,97115.53
2022-11-20T07:09:15.798Z,97120.22
2022-11-20T07:11:44.203Z,97119.09
2022-11-20T07:14:12.739Z,97112.44
2022-11-20T07:16:41.123Z,97119.09
2022-11-20T07:19:11.011Z,97117.13
2022-11-20T07:21:39.508Z,97115.53
2022-11-20T07:24:08.168Z,97115.53
2022-11-20T07:26:36.623Z,97120.69
2022-11-20T07:29:05.146Z,97119.09
2022-11-20T07:31:33.613Z,97122.66
2022-11-20T07:34:02.160Z,97121.84
2022-11-20T07:36:31.974Z,97118.59
2022-11-20T07:39:00.414Z,97119.41
2022-11-20T07:41:29.979Z,97122.97
2022-11-20T07:43:58.426Z,97117.78
2022-11-20T07:46:27.152Z,97124.94
2022-11-20T07:48:55.892Z,97129.63
2022-11-20T07:51:24.327Z,97125.72
2022-11-20T07:53:54.427Z,97135.13
2022-11-20T07:56:22.936Z,97118.59
2022-11-20T07:58:51.331Z,97124.94
2022-11-20T08:01:19.851Z,97125.72
2022-11-20T08:03:48.335Z,97126.88
2022-11-20T08:06:16.818Z,97127.69
2022-11-20T08:08:45.278Z,97132.38
2022-11-20T08:11:32.538Z,97128.50
2022-11-20T08:14:16.770Z,97130.44
2022-11-20T08:16:47.174Z,97135.94
2022-11-20T08:19:17.038Z,97129.97
2022-11-20T08:21:46.037Z,97131.94
2022-11-20T08:24:14.679Z,97131.47
2022-11-20T08:26:44.570Z,97129.34
2022-11-20T08:29:13.324Z,97129.34
2022-11-20T08:31:41.753Z,97127.75
2022-11-20T08:34:12.070Z,97130.50
2022-11-20T08:36:43.437Z,97133.25
2022-11-20T08:39:14.170Z,97131.31
2022-11-20T08:41:43.960Z,97142.00
2022-11-20T08:44:12.377Z,97143.13
2022-11-20T08:46:44.396Z,97138.75
2022-11-20T08:49:14.651Z,97139.25
2022-11-20T08:51:43.861Z,97142.00
2022-11-20T08:54:12.308Z,97143.63
2022-11-20T08:56:40.895Z,97138.75
2022-11-20T08:59:26.946Z,97140.38
2022-11-20T09:01:59.423Z,97143.13
2022-11-20T09:04:27.875Z,97148.31
2022-11-20T09:06:56.326Z,97153.03
2022-11-20T09:09:25.039Z,97141.19
2022-11-20T09:11:53.743Z,97139.25
2022-11-20T09:14:25.686Z,97142.00
2022-11-20T09:16:54.152Z,97149.13
2022-11-20T09:19:38.017Z,97143.63
2022-11-20T09:22:06.501Z,97148.31
2022-11-20T09:24:35.016Z,97151.88
2022-11-20T09:27:05.624Z,97143.63
2022-11-20T09:29:35.503Z,97147.19
2022-11-20T09:32:03.885Z,97143.63
2022-11-20T09:34:32.273Z,97149.13
2022-11-20T09:37:03.138Z,97148.00
2022-11-20T09:39:35.429Z,97151.88
2022-11-20T09:42:19.875Z,97157.41
2022-11-20T09:45:04.115Z,97157.06
2022-11-20T09:47:47.526Z,97167.28
2022-11-20T09:50:29.803Z,97161.78
2022-11-20T09:53:13.150Z,97162.91
2022-11-20T09:55:41.889Z,97165.19
2022-11-20T09:58:18.349Z,97164.84
2022-11-20T10:00:50.500Z,97166.47
2022-11-20T10:03:28.835Z,97171.19
2022-11-20T10:05:58.926Z,97166.81
2022-11-20T10:08:33.825Z,97170.03
2022-11-20T10:11:10.604Z,97176.69
2022-11-20T10:13:48.132Z,97167.63
2022-11-20T10:16:29.501Z,97166.47
2022-11-20T10:19:10.042Z,97164.84
2022-11-20T10:21:50.867Z,97171.19
2022-11-20T10:24:43.828Z,97164.03
2022-11-20T10:27:50.104Z,97162.09
2022-11-20T10:30:22.889Z,97171.19
2022-11-20T10:32:56.799Z,97166.47
2022-11-20T10:35:30.131Z,97168.41
2022-11-20T10:38:01.950Z,97169.56
2022-11-20T10:40:37.254Z,97172.31
2022-11-20T10:43:14.074Z,97154.63
2022-11-20T10:45:50.376Z,97160.16
2022-11-20T10:48:23.473Z,97160.16
2022-11-20T10:51:14.750Z,97162.09
2022-11-20T10:53:59.839Z,97157.41
2022-11-20T10:56:36.857Z,97153.03
2022-11-20T10:59:22.177Z,97152.22
2022-11-20T11:01:50.770Z,97152.22
2022-11-20T11:04:34.649Z,97151.41
2022-11-20T11:07:12.264Z,97145.91
2022-11-20T11:09:44.955Z,97142.31
2022-11-20T11:12:13.615Z,97149.78
2022-11-20T11:14:48.067Z,97144.28
2022-11-20T11:17:27.811Z,97155.28
2022-11-20T11:20:07.726Z,97153.34
2022-11-20T11:22:45.806Z,97156.91
2022-11-20T11:25:30.653Z,97152.53
2022-11-20T11:28:01.443Z,97155.28
2022-11-20T11:30:32.863Z,97155.28
2022-11-20T11:33:07.132Z,97148.97
2022-11-20T11:35:49.995Z,97160.00
2022-11-20T11:38:24.771Z,97147.03
2022-11-20T11:40:56.093Z,97145.41
2022-11-20T11:43:44.967Z,97145.91
2022-11-20T11:46:33.459Z,97149.78
2022-11-20T11:49:03.145Z,97145.09
2022-11-20T11:51:40.057Z,97136.81
2022-11-20T11:54:18.363Z,97134.88
2022-11-20T11:56:47.522Z,97133.25
2022-11-20T11:59:25.208Z,97123.84
2022-11-20T12:01:58.404Z,97124.66
2022-11-20T12:04:40.607Z,97118.34
2022-11-20T12:07:39.292Z,97111.19
2022-11-20T12:10:06.261Z,97118.34
2022-11-20T12:12:41.755Z,97118.00
2022-11-20T12:15:14.724Z,97118.34
2022-11-20T12:17:43.158Z,97114.44
2022-11-20T12:20:16.141Z,97112.81
2022-11-20T12:22:54.415Z,97114.44
2022-11-20T12:25:28.487Z,97110.88
2022-11-20T12:28:29.731Z,97103.41
2022-11-20T12:31:16.933Z,97111.69
2022-11-20T12:34:00.496Z,97097.91
2022-11-20T12:36:40.058Z,97102.28
2022-11-20T12:39:22.903Z,97091.56
2022-11-20T12:42:24.927Z,97098.72
2022-11-20T12:45:27.961Z,97093.19
2022-11-20T12:48:19.404Z,97086.88
2022-11-20T12:51:17.676Z,97095.16
2022-11-20T12:53:51.458Z,97089.63
2022-11-20T12:56:32.294Z,97089.63
2022-11-20T12:59:20.762Z,97092.38
2022-11-20T13:01:54.645Z,97083.31
2022-11-20T13:04:43.584Z,97086.88
2022-11-20T13:07:15.365Z,97085.25
2022-11-20T13:09:47.826Z,97085.25
2022-11-20T13:12:25.036Z,97074.22
2022-11-20T13:15:00.169Z,97080.56
2022-11-20T13:17:39.128Z,97081.38
2022-11-20T13:20:14.338Z,97080.56
2022-11-20T13:22:47.730Z,97087.69
2022-11-20T13:25:26.730Z,97080.56
2022-11-20T13:27:57.969Z,97077.47
2022-11-20T13:30:27.872Z,97071.16
2022-11-20T13:33:00.823Z,97070.34
2022-11-20T13:35:32.748Z,97064.81
2022-11-20T13:38:03.316Z,97068.41
2022-11-20T13:40:31.993Z,97066.44
2022-11-20T13:43:13.224Z,97077.47
2022-11-20T13:45:41.748Z,97074.72
2022-11-20T13:48:22.712Z,97068.72
2022-11-20T13:51:01.773Z,97067.59
2022-11-20T13:53:46.044Z,97070.34
2022-11-20T13:56:25.436Z,97071.97
2022-11-20T13:59:05.491Z,97063.69
2022-11-20T14:01:35.570Z,97062.41
2022-11-20T14:04:09.918Z,97065.31
2022-11-20T14:06:45.039Z,97065.78
2022-11-20T14:09:15.234Z,97062.34
2022-11-20T14:11:48.737Z,97055.03
2022-11-20T14:14:20.554Z,97059.88
2022-11-20T14:16:50.971Z,97053.69
2022-11-20T14:19:27.743Z,97059.69
2022-11-20T14:22:17.844Z,97055.31
2022-11-20T14:24:46.694Z,97054.38
2022-11-20T14:27:20.246Z,97049.50
2022-11-20T14:29:52.281Z,97043.84
2022-11-20T14:32:28.020Z,97042.94
2022-11-20T14:35:00.350Z,97038.88
2022-11-20T14:37:35.305Z,97041.81
2022-11-20T14:40:03.952Z,97030.31
2022-11-20T14:42:32.811Z,97031.47
2022-11-20T14:45:03.806Z,97033.75
2022-11-20T14:47:34.180Z,97034.53
2022-11-20T14:50:09.702Z,97037.97
2022-11-20T14:52:38.500Z,97025.66
2022-11-20T14:55:07.583Z,97025.66
2022-11-20T14:57:37.704Z,97030.50
2022-11-20T15:00:22.075Z,97034.69
2022-11-20T15:02:51.701Z,97040.50
2022-11-20T15:05:21.813Z,97033.31
2022-11-20T15:07:52.946Z,97029.22
2022-11-20T15:10:24.660Z,97028.69
2022-11-20T15:12:55.166Z,97032.06
2022-11-20T15:15:31.277Z,97031.06
2022-11-20T15:18:00.219Z,97019.38
2022-11-20T15:20:31.980Z,97022.28
2022-11-20T15:23:00.622Z,97026.31
2022-11-20T15:25:29.380Z,97011.88
2022-11-20T15:27:58.961Z,97005.25
2022-11-20T15:30:28.977Z,96998.88
2022-11-20T15:32:57.429Z,97000.53
2022-11-20T15:35:26.019Z,97001.34
2022-11-20T15:37:54.771Z,97004.09
2022-11-20T15:40:23.301Z,96996.63
2022-11-20T15:43:13.301Z,96998.25
2022-11-20T15:45:46.302Z,97005.38
2022-11-20T15:48:18.191Z,96999.06
2022-11-20T15:50:54.719Z,96989.63
2022-11-20T15:53:23.223Z,96993.69
2022-11-20T15:55:51.890Z,96988.16
2022-11-20T15:58:20.349Z,96989.44
2022-11-20T16:00:50.239Z,96977.94
2022-11-20T16:03:19.815Z,96973.22
2022-11-20T16:05:48.530Z,96987.34
2022-11-20T16:08:17.344Z,96994.81
2022-11-20T16:10:45.750Z,96994.34
2022-11-20T16:13:33.048Z,96991.91
2022-11-20T16:16:05.915Z,96991.44
2022-11-20T16:18:34.992Z,96981.88
2022-11-20T16:21:03.756Z,96987.03
2022-11-20T16:23:32.301Z,96989.31
2022-11-20T16:26:00.738Z,96990.47
2022-11-20T16:28:29.563Z,96992.41
2022-11-20T16:30:58.149Z,96988.03
2022-11-20T16:33:28.143Z,96988.38
2022-11-20T16:35:57.330Z,96984.47
2022-11-20T16:38:25.924Z,96988.38
2022-11-20T16:40:54.370Z,96991.13
2022-11-20T16:43:22.817Z,96984.00
2022-11-20T16:45:51.231Z,96985.97
2022-11-20T16:48:19.649Z,96985.97
2022-11-20T16:50:51.639Z,96981.25
2022-11-20T16:53:21.989Z,96974.94
2022-11-20T16:55:50.592Z,96967.78
2022-11-20T16:58:19.179Z,96968.59
2022-11-20T17:00:51.690Z,96960.31
2022-11-20T17:03:21.163Z,96954.34
2022-11-20T17:05:51.025Z,96961.47
2022-11-20T17:08:19.540Z,96964.56
2022-11-20T17:10:47.985Z,96959.06
2022-11-20T17:13:16.458Z,96956.63
2022-11-20T17:15:44.878Z,96960.53
2022-11-20T17:18:13.395Z,96953.41
2022-11-20T17:20:41.847Z,96951.78
2022-11-20T17:23:11.734Z,96949.03
2022-11-20T17:25:40.143Z,96936.72
2022-11-20T17:28:08.688Z,96935.91
2022-11-20T17:30:37.156Z,96941.28
2022-11-20T17:33:05.695Z,96942.91
2022-11-20T17:35:37.452Z,96943.56
2022-11-20T17:38:05.886Z,96940.81
2022-11-20T17:40:35.701Z,96942.75
2022-11-20T17:43:04.202Z,96945.84
2022-11-20T17:45:32.722Z,96939.53
2022-11-20T17:48:01.307Z,96937.91
2022-11-20T17:50:30.058Z,96933.53
2022-11-20T17:52:58.498Z,96929.16
2022-11-20T17:55:27.090Z,96927.22
2022-11-20T17:57:58.143Z,96930.31
2022-11-20T18:00:27.218Z,96916.53
2022-11-20T18:02:56.503Z,96915.72
2022-11-20T18:05:25.475Z,96914.09
2022-11-20T18:07:54.564Z,96912.16
2022-11-20T18:10:23.192Z,96905.03
2022-11-20T18:12:53.734Z,96899.53
2022-11-20T18:15:24.062Z,96896.75
2022-11-20T18:17:52.509Z,96896.75
2022-11-20T18:20:29.397Z,96896.75
2022-11-20T18:22:59.960Z,96888.97
2022-11-20T18:25:28.461Z,96888.97
2022-11-20T18:27:57.368Z,96886.22
2022-11-20T18:30:27.276Z,96883.13
2022-11-20T18:32:55.943Z,96885.53
2022-11-20T18:35:24.455Z,96882.78
2022-11-20T18:37:52.906Z,96878.53
2022-11-20T18:40:21.384Z,96876.59
2022-11-20T18:43:07.736Z,96867.19
2022-11-20T18:45:37.580Z,96864.44
2022-11-20T18:48:06.373Z,96864.91
2022-11-20T18:50:34.863Z,96870.41
2022-11-20T18:53:03.488Z,96870.41
2022-11-20T18:55:31.980Z,96872.84
2022-11-20T18:58:00.497Z,96876.06
2022-11-20T19:00:29.031Z,96869.75
2022-11-20T19:02:59.199Z,96876.88
2022-11-20T19:05:27.749Z,96871.34
2022-11-20T19:07:56.281Z,96874.56
2022-11-20T19:10:26.853Z,96860.78
2022-11-20T19:12:55.834Z,96862.75
2022-11-20T19:15:24.372Z,96848.63
2022-11-20T19:17:53.196Z,96849.44
2022-11-20T19:20:23.059Z,96848.63
2022-11-20T19:22:51.735Z,96840.81
2022-11-20T19:25:20.174Z,96851.84
2022-11-20T19:27:48.736Z,96865.28
2022-11-20T19:30:17.513Z,96861.72
2022-11-20T19:32:46.096Z,96862.88
2022-11-20T19:35:14.656Z,96870.81
2022-11-20T19:37:44.528Z,96869.66
2022-11-20T19:40:13.196Z,96865.75
2022-11-20T19:42:41.744Z,96863.81
2022-11-20T19:45:10.683Z,96866.56
2022-11-20T19:48:06.577Z,96868.53
2022-11-20T19:50:27.748Z,96864.97
2022-11-20T19:52:58.958Z,96861.41
2022-11-20T19:55:27.778Z,96870.13
2022-11-20T19:57:57.207Z,96864.63
2022-11-20T20:00:31.171Z,96867.03
2022-11-20T20:03:01.279Z,96851.63
2022-11-20T20:05:29.804Z,96846.13
2022-11-20T20:07:59.742Z,96840.63
2022-11-20T20:10:28.631Z,96839.47
2022-11-20T20:12:57.608Z,96844.97
2022-11-20T20:15:26.084Z,96839.47
2022-11-20T20:17:55.606Z,96836.38
2022-11-20T20:20:24.332Z,96827.28
2022-11-20T20:22:52.933Z,96835.56
2022-11-20T20:25:22.786Z,96830.06
2022-11-20T20:27:51.440Z,96832.81
2022-11-20T20:30:19.964Z,96821.78
2022-11-20T20:32:53.317Z,96820.16
2022-11-20T20:35:23.358Z,96816.25
2022-11-20T20:37:51.837Z,96819.03
2022-11-20T20:40:21.722Z,96816.25
2022-11-20T20:42:50.187Z,96811.88
2022-11-20T20:45:18.930Z,96808.31
2022-11-20T20:47:47.616Z,96817.88
2022-11-20T20:50:16.301Z,96815.13
2022-11-20T20:52:45.264Z,96815.78
2022-11-20T20:55:14.266Z,96811.75
2022-11-20T20:57:44.258Z,96816.00
2022-11-20T21:00:13.240Z,96820.25
2022-11-20T21:02:41.736Z,96815.88
2022-11-20T21:05:10.875Z,96809.09
2022-11-20T21:07:59.396Z,96812.19
2022-11-20T21:10:28.258Z,96812.50
2022-11-20T21:12:58.054Z,96810.09
2022-11-20T21:15:26.528Z,96814.34
2022-11-20T21:17:54.996Z,96814.34
2022-11-20T21:20:41.313Z,96804.44
2022-11-20T21:23:10.095Z,96811.09
2022-11-20T21:25:39.362Z,96806.41
2022-11-20T21:28:12.117Z,96809.50
2022-11-20T21:30:45.270Z,96818.91
2022-11-20T21:33:14.615Z,96816.50
2022-11-20T21:35:43.137Z,96813.41
2022-11-20T21:38:11.690Z,96810.63
2022-11-20T21:40:40.251Z,96813.41
2022-11-20T21:43:10.320Z,96808.69
2022-11-20T21:45:38.856Z,96809.38
2022-11-20T21:48:07.614Z,96806.94
2022-11-20T21:50:36.199Z,96811.31
2022-11-20T21:53:04.734Z,96814.06
2022-11-20T21:55:33.167Z,96804.66
2022-11-20T21:58:01.745Z,96791.69
2022-11-20T22:00:31.571Z,96805.13
2022-11-20T22:03:00.101Z,96807.88
2022-11-20T22:05:28.616Z,96819.59
2022-11-20T22:07:57.049Z,96825.09
2022-11-20T22:10:27.915Z,96836.13
2022-11-20T22:13:16.980Z,96829.00
2022-11-20T22:16:00.496Z,96821.06
2022-11-20T22:18:29.636Z,96829.66
2022-11-20T22:20:58.137Z,96828.06
2022-11-20T22:23:26.715Z,96837.47
2022-11-20T22:25:55.176Z,96831.94
2022-11-20T22:28:23.745Z,96839.41
2022-11-20T22:30:53.585Z,96835.03
2022-11-20T22:33:22.025Z,96833.22
2022-11-20T22:35:50.567Z,96829.47
2022-11-20T22:38:19.015Z,96827.66
2022-11-20T22:40:48.501Z,96838.47
2022-11-20T22:43:16.934Z,96836.66
2022-11-20T22:45:46.446Z,96835.50
2022-11-20T22:48:16.224Z,96839.06
2022-11-20T22:50:45.151Z,96839.06
2022-11-20T22:53:13.627Z,96841.84
2022-11-20T22:55:42.105Z,96843.78
2022-11-20T22:58:10.643Z,96837.00
2022-11-20T23:00:39.171Z,96838.94
2022-11-20T23:03:07.618Z,96841.22
2022-11-20T23:05:37.533Z,96850.63
2022-11-20T23:08:06.275Z,96839.63
2022-11-20T23:10:34.812Z,96829.25
2022-11-20T23:13:03.253Z,96844.19
2022-11-20T23:15:34.010Z,96832.69
2022-11-20T23:18:02.487Z,96857.50
2022-11-20T23:20:31.027Z,96853.13
2022-11-20T23:23:00.863Z,96854.28
2022-11-20T23:25:29.504Z,96862.06
2022-11-20T23:27:57.985Z,96853.00
2022-11-20T23:30:26.584Z,96853.31
2022-11-20T23:32:55.060Z,96862.75
2022-11-20T23:35:23.461Z,96857.22
2022-11-20T23:37:51.932Z,96857.22
2022-11-20T23:40:21.794Z,96854.00
2022-11-20T23:43:07.725Z,96848.50
2022-11-20T23:45:39.715Z,96856.75
2022-11-20T23:48:08.438Z,96855.16
2022-11-20T23:50:37.030Z,96853.19
2022-11-20T23:53:06.000Z,96854.00
2022-11-20T23:55:36.123Z,96857.91
2022-11-20T23:58:05.503Z,96851.25
